createdAt,value
2018-04-12T13:37:22.137Z,52.61
2018-04-12T13:38:21.710Z,51.94
2018-04-12T13:39:21.689Z,53.96
2018-04-12T13:40:21.676Z,53.77
2018-04-12T13:41:21.674Z,54.16
2018-04-12T13:42:21.666Z,56.76
2018-04-12T13:43:21.686Z,52.61
2018-04-12T13:44:21.667Z,53.67
2018-04-12T13:45:21.640Z,52.91
2018-04-12T13:46:21.627Z,52.04
2018-04-12T13:47:21.633Z,54.83
2018-04-12T13:48:21.621Z,55.41
2018-04-12T13:49:21.633Z,55.02
2018-04-12T13:50:21.611Z,53.87
2018-04-12T13:51:21.621Z,54.35
2018-04-12T13:52:21.601Z,55.02
2018-04-12T13:53:21.597Z,57.24
2018-04-12T13:54:21.601Z,55.31
2018-04-12T13:55:21.585Z,53.58
2018-04-12T13:56:21.598Z,56.95
2018-04-12T13:57:21.581Z,51.36
2018-04-12T13:58:21.578Z,52.81
2018-04-12T13:59:21.548Z,53.48
2018-04-12T14:00:21.572Z,54.06
2018-04-12T14:01:21.538Z,56.47
2018-04-12T14:02:21.549Z,56.27
2018-04-12T14:03:21.525Z,55.41
2018-04-12T14:04:21.526Z,53.67
2018-04-12T14:05:21.520Z,55.31
2018-04-12T14:06:21.519Z,56.85
2018-04-12T14:07:21.513Z,54.64
2018-04-12T14:08:21.519Z,56.18
2018-04-12T14:09:21.488Z,56.66
2018-04-12T14:10:21.519Z,55.22
2018-04-12T14:11:21.488Z,56.18
2018-04-12T14:12:21.478Z,54.83
2018-04-12T14:13:21.471Z,58.11
2018-04-12T14:14:21.520Z,58.62
2018-04-12T14:15:21.462Z,56.21
2018-04-12T14:16:21.462Z,56.40
2018-04-12T14:17:21.511Z,56.98
2018-04-12T14:18:21.507Z,56.88
2018-04-12T14:19:21.459Z,56.33
2018-04-12T14:20:21.432Z,58.26
2018-04-12T14:21:21.429Z,54.11
2018-04-12T14:22:21.425Z,55.94
2018-04-12T14:23:21.484Z,52.47
2018-04-12T14:24:21.460Z,52.64
2018-04-12T14:25:21.406Z,53.13
2018-04-12T14:26:21.444Z,53.13
2018-04-12T14:27:21.435Z,53.61
2018-04-12T14:28:21.393Z,55.44
2018-04-12T14:29:21.450Z,53.41
2018-04-12T14:30:21.386Z,54.06
2018-04-12T14:31:21.386Z,52.73
2018-04-12T14:32:21.372Z,53.80
2018-04-12T14:33:21.385Z,54.28
2018-04-12T14:34:21.466Z,54.18
2018-04-12T14:35:21.357Z,54.86
2018-04-12T14:36:21.363Z,53.03
2018-04-12T14:37:21.353Z,52.04
2018-04-12T14:38:21.348Z,53.96
2018-04-12T14:39:21.349Z,53.39
2018-04-12T14:40:21.336Z,54.83
2018-04-12T14:41:21.334Z,55.22
2018-04-12T14:42:21.324Z,52.91
2018-04-12T14:43:21.318Z,54.44
2018-04-12T14:44:21.337Z,54.35
2018-04-12T14:45:21.323Z,54.64
2018-04-12T14:46:21.300Z,55.51
2018-04-12T14:47:21.350Z,57.05
2018-04-12T14:48:21.330Z,55.31
2018-04-12T14:49:21.285Z,54.93
2018-04-12T14:50:21.308Z,55.99
2018-04-12T14:51:21.273Z,53.48
2018-04-12T14:52:21.260Z,58.20
2018-04-12T14:53:21.283Z,57.24
2018-04-12T14:54:21.254Z,59.36
2018-04-12T14:55:21.247Z,55.12
2018-04-12T14:56:21.257Z,56.66
2018-04-12T14:57:21.238Z,53.67
2018-04-12T14:58:21.232Z,54.35
2018-04-12T14:59:21.222Z,55.44
2018-04-12T15:00:21.222Z,51.87
2018-04-12T15:01:21.212Z,56.49
2018-04-12T15:02:21.203Z,53.92
2018-04-12T15:03:21.205Z,55.56
2018-04-12T15:04:21.200Z,52.86
2018-04-12T15:05:21.208Z,51.70
2018-04-12T15:06:21.207Z,50.16
2018-04-12T15:07:21.180Z,51.12
2018-04-12T15:08:21.170Z,52.86
2018-04-12T15:09:21.171Z,48.52
2018-04-12T15:10:21.192Z,55.46
2018-04-12T15:11:21.158Z,55.46
2018-04-12T15:12:21.174Z,56.91
2018-04-12T15:13:21.157Z,54.21
2018-04-12T15:14:21.141Z,52.28
2018-04-12T15:15:21.135Z,52.47
2018-04-12T15:16:21.132Z,52.93
2018-04-12T15:17:21.131Z,52.93
2018-04-12T15:18:21.121Z,52.35
2018-04-12T15:19:21.109Z,50.01
2018-04-12T15:20:21.109Z,52.13
2018-04-12T15:21:21.131Z,52.13
2018-04-12T15:22:21.122Z,50.78
2018-04-12T15:23:21.103Z,50.23
2018-04-12T15:24:21.093Z,50.11
2018-04-12T15:25:21.124Z,52.13
2018-04-12T15:26:21.083Z,52.23
2018-04-12T15:27:21.067Z,54.66
2018-04-12T15:28:21.063Z,59.55
2018-04-12T15:29:21.064Z,54.35
2018-04-12T15:30:21.057Z,54.93
2018-04-12T15:31:21.112Z,57.56
2018-04-12T15:32:21.047Z,51.36
2018-04-12T15:33:21.045Z,51.26
2018-04-12T15:34:21.035Z,55.79
2018-04-12T15:35:21.029Z,55.22
2018-04-12T15:36:21.025Z,54.35
2018-04-12T15:37:21.013Z,53.09
2018-04-12T15:38:21.032Z,54.06
2018-04-12T15:39:21.005Z,53.00
2018-04-12T15:40:21.000Z,54.06
2018-04-12T15:41:20.996Z,55.51
2018-04-12T15:42:20.987Z,56.47
2018-04-12T15:43:20.975Z,54.06
2018-04-12T15:44:20.972Z,52.23
2018-04-12T15:45:20.965Z,53.58
2018-04-12T15:46:20.956Z,57.24
2018-04-12T15:47:20.951Z,60.13
2018-04-12T15:48:20.952Z,57.34
2018-04-12T15:49:20.942Z,54.06
2018-04-12T15:50:20.936Z,54.74
2018-04-12T15:51:20.929Z,54.35
2018-04-12T15:52:20.945Z,59.36
2018-04-12T15:53:20.952Z,57.72
2018-04-12T15:54:20.910Z,57.05
2018-04-12T15:55:20.904Z,56.18
2018-04-12T15:56:20.900Z,55.87
2018-04-12T15:57:20.890Z,57.34
2018-04-12T15:58:20.894Z,57.05
2018-04-12T15:59:20.886Z,58.97
2018-04-12T16:00:20.871Z,55.41
2018-04-12T16:01:20.884Z,58.97
2018-04-12T16:02:20.858Z,54.16
2018-04-12T16:03:20.853Z,55.02
2018-04-12T16:04:20.852Z,57.34
2018-04-12T16:05:20.843Z,57.24
2018-04-12T16:06:20.839Z,57.24
2018-04-12T16:07:20.840Z,57.24
2018-04-12T16:08:20.823Z,55.70
2018-04-12T16:09:20.814Z,56.37
2018-04-12T16:10:20.807Z,59.10
2018-04-12T16:11:20.803Z,56.47
2018-04-12T16:12:20.823Z,56.11
2018-04-12T16:13:20.794Z,57.75
2018-04-12T16:14:20.788Z,56.40
2018-04-12T16:15:20.775Z,55.99
2018-04-12T16:16:20.801Z,54.16
2018-04-12T16:17:20.769Z,53.09
2018-04-12T16:18:20.763Z,57.14
2018-04-12T16:19:20.778Z,56.37
2018-04-12T16:20:20.746Z,54.25
2018-04-12T16:21:20.744Z,56.95
2018-04-12T16:22:20.738Z,57.02
2018-04-12T16:23:20.734Z,55.41
2018-04-12T16:24:20.731Z,55.31
2018-04-12T16:25:20.711Z,55.96
2018-04-12T16:26:20.737Z,57.02
2018-04-12T16:27:20.703Z,55.87
2018-04-12T16:28:20.692Z,58.01
2018-04-12T16:29:20.683Z,57.24
2018-04-12T16:30:20.686Z,52.97
2018-04-12T16:31:20.677Z,56.05
2018-04-12T16:32:20.669Z,57.89
2018-04-12T16:33:20.660Z,58.17
2018-04-12T16:34:20.651Z,54.52
2018-04-12T16:35:20.647Z,54.22
2018-04-12T16:36:20.705Z,59.72
2018-04-12T16:37:20.647Z,58.75
2018-04-12T16:38:20.635Z,54.52
2018-04-12T16:39:20.618Z,56.63
2018-04-12T16:40:20.612Z,57.60
2018-04-12T16:41:20.606Z,57.21
2018-04-12T16:42:20.603Z,58.27
2018-04-12T16:43:20.593Z,57.79
2018-04-12T16:44:20.612Z,57.60
2018-04-12T16:45:20.584Z,56.25
2018-04-12T16:46:20.671Z,54.03
2018-04-12T16:47:20.564Z,55.38
2018-04-12T16:48:20.573Z,57.95
2018-04-12T16:49:20.596Z,58.63
2018-04-12T16:50:20.545Z,61.42
2018-04-12T16:51:20.536Z,61.71
2018-04-12T16:52:20.539Z,61.13
2018-04-12T16:53:20.529Z,61.90
2018-04-12T16:54:20.521Z,60.46
2018-04-12T16:55:20.520Z,61.52
2018-04-12T16:56:20.510Z,62.06
2018-04-12T16:57:20.514Z,60.62
2018-04-12T16:58:20.489Z,65.05
2018-04-12T16:59:20.479Z,65.91
2018-04-12T17:00:20.472Z,63.34
2018-04-12T17:01:20.472Z,64.69
2018-04-12T17:02:20.456Z,65.05
2018-04-12T17:03:20.498Z,67.58
2018-04-12T17:04:20.447Z,68.32
2018-04-12T17:05:20.437Z,66.39
2018-04-12T17:06:20.459Z,67.45
2018-04-12T17:07:20.425Z,67.83
2018-04-12T17:08:20.440Z,67.07
2018-04-12T17:09:20.409Z,67.07
2018-04-12T17:10:20.405Z,68.60
2018-04-12T17:11:20.409Z,68.13
2018-04-12T17:12:20.383Z,69.73
2018-04-12T17:13:20.373Z,69.34
2018-04-12T17:14:20.400Z,66.17
2018-04-12T17:15:20.362Z,66.46
2018-04-12T17:16:20.359Z,66.55
2018-04-12T17:17:20.343Z,67.00
2018-04-12T17:18:20.332Z,67.48
2018-04-12T17:19:20.327Z,68.06
2018-04-12T17:20:20.317Z,68.63
2018-04-12T17:21:20.331Z,69.08
2018-04-12T17:22:20.301Z,70.33
2018-04-12T17:23:20.311Z,69.62
2018-04-12T17:24:20.301Z,69.34
2018-04-12T17:25:20.291Z,69.34
2018-04-12T17:26:20.282Z,71.16
2018-04-12T17:27:20.264Z,71.73
2018-04-12T17:28:20.248Z,77.50
2018-04-12T17:29:20.248Z,75.67
2018-04-12T17:30:20.250Z,75.57
2018-04-12T17:31:20.228Z,76.82
2018-04-12T17:32:20.222Z,78.94
2018-04-12T17:33:20.218Z,77.11
2018-04-12T17:34:20.198Z,77.11
2018-04-12T17:35:20.190Z,78.84
2018-04-12T17:36:20.180Z,78.55
2018-04-12T17:37:20.196Z,80.28
2018-04-12T17:38:20.160Z,78.65
2018-04-12T17:39:20.172Z,78.45
2018-04-12T17:40:20.142Z,75.48
2018-04-12T17:41:20.137Z,74.58
2018-04-12T17:42:20.149Z,75.35
2018-04-12T17:43:20.136Z,77.84
2018-04-12T17:44:20.131Z,79.19
2018-04-12T17:45:20.130Z,80.38
2018-04-12T17:46:20.086Z,81.43
2018-04-12T17:47:20.076Z,79.86
2018-04-12T17:48:20.069Z,80.05
2018-04-12T17:49:20.066Z,81.01
2018-04-12T17:50:20.060Z,80.82
2018-04-12T17:51:20.041Z,81.54
2018-04-12T17:52:20.031Z,80.87
2018-04-12T17:53:20.032Z,80.58
2018-04-12T17:54:20.026Z,81.16
2018-04-12T17:55:20.118Z,81.45
2018-04-12T17:56:19.996Z,82.60
2018-04-12T17:57:19.986Z,81.79
2018-04-12T17:58:19.979Z,81.60
2018-04-12T17:59:19.965Z,81.98
2018-04-12T18:00:19.967Z,83.33
2018-04-12T18:01:19.939Z,82.65
2018-04-12T18:02:19.930Z,82.37
2018-04-12T18:03:19.923Z,81.89
2018-04-12T18:04:19.913Z,82.85
2018-04-12T18:05:19.910Z,82.37
2018-04-12T18:06:19.894Z,80.79
2018-04-12T18:07:19.877Z,79.07
2018-04-12T18:08:19.877Z,78.97
2018-04-12T18:09:19.869Z,79.07
2018-04-12T18:10:19.858Z,79.07
2018-04-12T18:11:19.842Z,83.38
2018-04-12T18:12:19.828Z,83.76
2018-04-12T18:13:19.835Z,84.05
2018-04-12T18:14:19.830Z,84.53
2018-04-12T18:15:19.798Z,84.91
2018-04-12T18:16:19.788Z,83.53
2018-04-12T18:17:19.797Z,83.92
2018-04-12T18:18:27.609Z,83.82
2018-04-12T18:19:20.002Z,84.88
2018-04-12T18:20:20.031Z,86.69
2018-04-12T18:21:19.817Z,86.02
2018-04-12T18:22:19.737Z,85.74
2018-04-12T18:23:19.734Z,86.50
2018-04-12T18:24:19.724Z,85.74
2018-04-12T18:25:19.722Z,85.50
2018-04-12T18:26:19.734Z,83.68
2018-04-12T18:27:19.696Z,83.78
2018-04-12T18:28:19.938Z,83.97
2018-04-12T18:29:19.897Z,84.45
2018-04-12T18:30:19.646Z,86.36
2018-04-12T18:31:19.623Z,87.61
2018-04-12T18:32:19.616Z,86.84
2018-04-12T18:33:19.609Z,87.61
2018-04-12T18:34:19.590Z,87.70
2018-04-12T18:35:19.580Z,88.18
2018-04-12T18:36:19.568Z,89.52
2018-04-12T18:37:19.584Z,87.61
2018-04-12T18:38:19.552Z,86.80
2018-04-12T18:39:19.564Z,87.13
2018-04-12T18:40:19.537Z,87.41
2018-04-12T18:41:19.515Z,86.41
2018-04-12T18:42:19.502Z,87.66
2018-04-12T18:43:19.486Z,87.66
2018-04-12T18:44:19.486Z,87.76
2018-04-12T18:45:19.467Z,88.81
2018-04-12T18:46:19.466Z,89.95
2018-04-12T18:47:19.444Z,89.86
2018-04-12T18:48:19.428Z,89.00
2018-04-12T18:49:19.431Z,89.00
2018-04-12T18:50:19.403Z,88.81
2018-04-12T18:51:19.402Z,88.81
2018-04-12T18:52:19.384Z,88.81
2018-04-12T18:53:19.420Z,87.04
2018-04-12T18:54:19.355Z,87.04
2018-04-12T18:55:19.359Z,88.00
2018-04-12T18:56:19.340Z,90.39
2018-04-12T18:57:19.330Z,89.34
2018-04-12T18:58:19.317Z,89.43
2018-04-12T18:59:19.303Z,88.57
2018-04-12T19:00:19.298Z,91.44
2018-04-12T19:01:19.278Z,90.77
2018-04-12T19:02:19.272Z,90.01
2018-04-12T19:03:19.262Z,89.34
2018-04-12T19:04:19.246Z,89.34
2018-04-12T19:05:19.231Z,89.62
2018-04-12T19:06:19.268Z,89.72
2018-04-12T19:07:19.202Z,88.29
2018-04-12T19:08:19.199Z,87.81
2018-04-12T19:09:19.189Z,89.62
2018-04-12T19:10:19.174Z,89.05
2018-04-12T19:11:19.170Z,89.24
2018-04-12T19:12:19.158Z,90.01
2018-04-12T19:13:19.137Z,89.10
2018-04-12T19:14:19.148Z,89.96
2018-04-12T19:15:19.112Z,90.44
2018-04-12T19:16:19.099Z,90.82
2018-04-12T19:17:19.076Z,90.53
2018-04-12T19:18:19.077Z,90.73
2018-04-12T19:19:19.055Z,91.39
2018-04-12T19:20:19.065Z,91.88
2018-04-12T19:21:19.064Z,90.53
2018-04-12T19:22:19.025Z,89.29
2018-04-12T19:23:19.012Z,88.91
2018-04-12T19:24:19.000Z,89.58
2018-04-12T19:25:18.987Z,90.92
2018-04-12T19:26:18.977Z,90.78
2018-04-12T19:27:18.974Z,92.25
2018-04-12T19:28:27.891Z,91.25
2018-04-12T19:30:12.608Z,91.59
2018-04-12T19:31:12.553Z,91.49
2018-04-12T19:32:12.615Z,90.30
2018-04-12T19:33:12.553Z,91.93
2018-04-12T19:34:12.302Z,92.97
2018-04-12T19:35:12.287Z,93.93
2018-04-12T19:36:12.251Z,92.64
2018-04-12T19:37:12.248Z,91.30
2018-04-12T19:38:12.502Z,91.64
2018-04-12T19:39:12.496Z,92.40
2018-04-12T19:40:12.499Z,91.39
2018-04-12T19:41:12.212Z,90.49
2018-04-12T19:42:12.474Z,90.59
2018-04-12T19:43:12.394Z,91.83
2018-04-12T19:44:12.400Z,91.83
2018-04-12T19:45:12.449Z,91.74
2018-04-12T19:46:12.341Z,91.35
2018-04-12T19:47:12.357Z,91.64
2018-04-12T19:48:12.308Z,91.25
2018-04-12T19:49:12.353Z,91.64
2018-04-12T19:50:12.280Z,92.97
2018-04-12T19:51:12.344Z,91.30
2018-04-12T19:52:12.314Z,92.79
2018-04-12T19:53:12.271Z,92.79
2018-04-12T19:54:12.003Z,91.88
2018-04-12T19:55:11.976Z,92.45
2018-04-12T19:56:11.980Z,92.16
2018-04-12T19:57:11.953Z,92.93
2018-04-12T19:58:11.954Z,91.30
2018-04-12T19:59:11.946Z,92.07
2018-04-12T20:00:11.940Z,94.07
2018-04-12T20:01:11.912Z,92.93
2018-04-12T20:02:11.909Z,92.83
2018-04-12T20:03:11.883Z,93.21
2018-04-12T20:04:11.879Z,92.16
2018-04-12T20:05:11.857Z,93.70
2018-04-12T20:06:11.847Z,94.07
2018-04-12T20:07:11.828Z,95.12
2018-04-12T20:08:11.841Z,94.07
2018-04-12T20:09:11.803Z,92.74
2018-04-12T20:10:11.787Z,91.88
2018-04-12T20:11:11.784Z,92.36
2018-04-12T20:12:11.761Z,92.50
2018-04-12T20:13:11.758Z,93.46
2018-04-12T20:14:11.734Z,92.69
2018-04-12T20:15:21.189Z,93.88
2018-04-12T20:17:05.394Z,92.83
2018-04-12T20:18:05.321Z,94.27
2018-04-12T20:19:05.381Z,92.88
2018-04-12T20:20:05.318Z,94.03
2018-04-12T20:21:05.060Z,93.46
2018-04-12T20:22:05.037Z,94.03
2018-04-12T20:23:04.996Z,93.93
2018-04-12T20:24:05.003Z,94.41
2018-04-12T20:25:04.996Z,94.31
2018-04-12T20:26:05.224Z,94.51
2018-04-12T20:27:14.492Z,93.84
2018-04-12T20:28:58.610Z,93.84
2018-04-12T20:29:58.317Z,93.36
2018-04-12T20:30:58.635Z,93.74
2018-04-12T20:31:58.580Z,92.97
2018-04-12T20:32:58.501Z,92.69
2018-04-12T20:33:58.588Z,92.97
2018-04-12T20:34:58.482Z,93.07
2018-04-12T20:35:58.517Z,94.31
2018-04-12T20:36:58.514Z,95.27
2018-04-12T20:37:58.469Z,95.84
2018-04-12T20:38:58.510Z,94.98
2018-04-12T20:39:58.262Z,95.17
2018-04-12T20:40:58.157Z,95.27
2018-04-12T20:41:58.199Z,94.03
2018-04-12T20:42:58.175Z,94.31
2018-04-12T20:43:58.752Z,93.93
2018-04-12T20:44:58.095Z,94.65
2018-04-12T20:45:58.099Z,93.79
2018-04-12T20:46:58.066Z,95.03
2018-04-12T20:47:58.069Z,94.93
2018-04-12T20:48:58.066Z,95.22
2018-04-12T20:49:58.014Z,95.61
2018-04-12T20:50:58.013Z,94.74
2018-04-12T20:51:57.993Z,94.56
2018-04-12T20:52:57.986Z,95.61
2018-04-12T20:53:57.999Z,95.32
2018-04-12T20:54:58.112Z,97.89
2018-04-12T20:55:58.182Z,95.89
2018-04-12T20:56:57.989Z,95.22
2018-04-12T20:57:58.213Z,95.98
2018-04-12T20:58:58.048Z,95.79
2018-04-12T20:59:58.100Z,95.41
2018-04-12T21:00:58.097Z,95.61
2018-04-12T21:01:57.924Z,95.03
2018-04-12T21:02:57.934Z,94.93
2018-04-12T21:03:57.991Z,94.89
2018-04-12T21:04:57.991Z,96.03
2018-04-12T21:05:58.032Z,96.27
2018-04-12T21:06:58.069Z,96.37
2018-04-12T21:07:57.835Z,96.56
2018-04-12T21:08:57.813Z,95.65
2018-04-12T21:09:57.914Z,96.70
2018-04-12T21:10:57.867Z,97.13
2018-04-12T21:11:57.831Z,96.03
2018-04-12T21:12:57.776Z,95.98
2018-04-12T21:13:57.752Z,95.56
2018-04-12T21:14:57.738Z,97.42
2018-04-12T21:15:57.755Z,96.70
2018-04-12T21:16:57.780Z,96.32
2018-04-12T21:17:57.800Z,95.65
2018-04-12T21:18:57.780Z,96.13
2018-04-12T21:19:57.773Z,96.22
2018-04-12T21:20:57.735Z,96.22
2018-04-12T21:21:57.639Z,96.61
2018-04-12T21:22:57.710Z,96.13
2018-04-12T21:23:58.199Z,96.22
2018-04-12T21:24:57.714Z,96.70
2018-04-12T21:25:57.811Z,96.41
2018-04-12T21:26:57.666Z,97.17
2018-04-12T21:27:57.608Z,96.61
2018-04-12T21:28:57.653Z,97.08
2018-04-12T21:29:57.543Z,97.27
2018-04-12T21:30:57.543Z,98.03
2018-04-12T21:31:57.468Z,97.75
2018-04-12T21:32:57.573Z,98.51
2018-04-12T21:33:57.874Z,97.94
2018-04-12T21:34:57.673Z,98.03
2018-04-12T21:35:57.588Z,97.85
2018-04-12T21:36:57.537Z,96.80
2018-04-12T21:37:57.409Z,96.61
2018-04-12T21:38:57.492Z,97.37
2018-04-12T21:39:57.571Z,98.32
2018-04-12T21:40:57.476Z,97.66
2018-04-12T21:41:57.402Z,97.85
2018-04-12T21:42:57.356Z,98.61
2018-04-12T21:43:57.372Z,99.37
2018-04-12T21:44:57.293Z,98.61
2018-04-12T21:45:57.404Z,96.70
2018-04-12T21:46:57.409Z,98.22
2018-04-12T21:47:57.300Z,98.32
2018-04-12T21:48:57.270Z,97.46
2018-04-12T21:49:57.312Z,96.89
2018-04-12T21:50:57.238Z,98.70
2018-04-12T21:51:57.208Z,98.61
2018-04-12T21:52:57.181Z,97.46
2018-04-12T21:53:57.216Z,96.22
2018-04-12T21:54:57.344Z,98.32
2018-04-12T21:55:57.217Z,98.61
2018-04-12T21:56:57.124Z,98.03
2018-04-12T21:58:07.241Z,97.46
2018-04-12T21:59:51.873Z,97.27
2018-04-12T22:00:52.368Z,97.75
2018-04-12T22:01:53.406Z,98.03
2018-04-12T22:02:52.419Z,96.70
2018-04-12T22:03:51.844Z,96.32
2018-04-12T22:04:52.371Z,97.08
2018-04-12T22:05:51.733Z,98.22
2018-04-12T22:06:51.681Z,99.18
2018-04-12T22:07:51.588Z,99.27
2018-04-12T22:08:51.516Z,98.03
2018-04-12T22:09:51.423Z,98.22
2018-04-12T22:10:51.421Z,97.94
2018-04-12T22:11:51.323Z,97.85
2018-04-12T22:12:51.366Z,97.85
2018-04-12T22:13:51.423Z,97.37
2018-04-12T22:14:51.308Z,97.37
2018-04-12T22:15:51.281Z,97.37
2018-04-12T22:16:51.302Z,96.98
2018-04-12T22:17:51.433Z,96.89
2018-04-12T22:18:51.351Z,97.27
2018-04-12T22:19:51.472Z,98.22
2018-04-12T22:20:51.306Z,97.94
2018-04-12T22:21:51.251Z,97.66
2018-04-12T22:22:51.170Z,96.65
2018-04-12T22:23:51.123Z,97.32
2018-04-12T22:24:51.166Z,97.61
2018-04-12T22:25:51.116Z,98.36
2018-04-12T22:26:51.109Z,99.51
2018-04-12T22:27:51.245Z,98.75
2018-04-12T22:28:51.036Z,98.56
2018-04-12T22:29:51.024Z,99.13
2018-04-12T22:30:51.031Z,98.75
2018-04-12T22:31:50.989Z,99.13
2018-04-12T22:32:50.956Z,99.13
2018-04-12T22:33:51.040Z,99.99
2018-04-12T22:34:50.992Z,99.99
2018-04-12T22:35:50.976Z,98.27
2018-04-12T22:36:51.014Z,97.80
2018-04-12T22:37:50.986Z,99.13
2018-04-12T22:38:50.967Z,99.32
2018-04-12T22:39:50.906Z,99.41
2018-04-12T22:40:50.945Z,97.41
2018-04-12T22:41:50.888Z,98.65
2018-04-12T22:42:50.892Z,99.41
2018-04-12T22:43:50.775Z,99.18
2018-04-12T22:44:50.932Z,99.84
2018-04-12T22:45:50.830Z,99.99
2018-04-12T22:46:50.839Z,99.99
2018-04-12T22:47:50.794Z,99.99
2018-04-12T22:48:50.754Z,99.99
2018-04-12T22:49:50.745Z,99.32
2018-04-12T22:50:50.762Z,99.99
2018-04-12T22:51:50.788Z,99.99
2018-04-12T22:52:50.766Z,99.89
2018-04-12T22:53:50.722Z,99.13
2018-04-12T22:54:50.633Z,99.99
2018-04-12T22:55:50.655Z,99.99
2018-04-12T22:56:50.639Z,99.70
2018-04-12T22:57:50.701Z,99.22
2018-04-12T22:58:50.651Z,98.18
2018-04-12T22:59:50.677Z,99.80
2018-04-12T23:00:50.609Z,99.60
2018-04-12T23:01:50.945Z,99.65
2018-04-12T23:02:50.561Z,99.75
2018-04-12T23:03:51.271Z,99.84
2018-04-12T23:04:50.766Z,99.99
2018-04-12T23:05:50.526Z,99.99
2018-04-12T23:06:50.642Z,99.65
2018-04-12T23:07:50.503Z,99.37
2018-04-12T23:08:50.461Z,99.55
2018-04-12T23:09:50.451Z,99.27
2018-04-12T23:10:50.386Z,99.99
2018-04-12T23:11:50.459Z,99.99
2018-04-12T23:12:50.598Z,98.99
2018-04-12T23:13:50.384Z,99.99
2018-04-12T23:14:50.401Z,99.08
2018-04-12T23:15:50.315Z,99.37
2018-04-12T23:16:50.338Z,99.99
2018-04-12T23:17:50.283Z,99.99
2018-04-12T23:18:50.296Z,99.99
2018-04-12T23:19:50.303Z,99.99
2018-04-12T23:20:50.230Z,99.99
2018-04-12T23:21:50.274Z,99.99
2018-04-12T23:22:50.361Z,99.99
2018-04-12T23:23:50.226Z,99.99
2018-04-12T23:24:50.271Z,99.99
2018-04-12T23:25:50.276Z,99.55
2018-04-12T23:26:50.258Z,99.99
2018-04-12T23:27:50.185Z,99.99
2018-04-12T23:28:50.255Z,99.99
2018-04-12T23:29:50.076Z,99.75
2018-04-12T23:30:50.490Z,99.99
2018-04-12T23:31:50.026Z,99.99
2018-04-12T23:32:50.041Z,99.99
2018-04-12T23:33:49.997Z,99.99
2018-04-12T23:34:50.003Z,99.99
2018-04-12T23:35:49.974Z,99.99
2018-04-12T23:36:49.945Z,99.99
2018-04-12T23:37:50.116Z,99.84
2018-04-12T23:38:49.923Z,99.84
2018-04-12T23:39:49.916Z,99.99
2018-04-12T23:40:49.893Z,99.18
2018-04-12T23:41:49.887Z,99.99
2018-04-12T23:42:49.858Z,99.99
2018-04-12T23:43:49.839Z,99.99
2018-04-12T23:44:49.823Z,99.99
2018-04-12T23:45:49.837Z,99.99
2018-04-12T23:46:49.808Z,99.99
2018-04-12T23:47:49.788Z,99.99
2018-04-12T23:48:49.766Z,99.99
2018-04-12T23:49:49.769Z,99.99
2018-04-12T23:50:49.737Z,99.99
2018-04-12T23:51:49.714Z,99.99
2018-04-12T23:52:49.705Z,99.99
2018-04-12T23:53:49.685Z,99.99
2018-04-12T23:54:49.666Z,99.99
2018-04-12T23:55:49.663Z,99.99
2018-04-12T23:56:49.637Z,99.99
2018-04-12T23:57:49.634Z,99.99
2018-04-12T23:58:49.616Z,99.99
2018-04-12T23:59:49.587Z,99.99
